sensor_id;sensor_type;location;lat;lon;timestamp;P1;durP1;ratioP1;P2;durP2;ratioP2
34317;SDS011;20582;52.196;20.952;2023-05-07T00:01:45;10.07;;;5.60;;
34317;SDS011;20582;52.196;20.952;2023-05-07T00:04:11;11.13;;;5.43;;
34317;SDS011;20582;52.196;20.952;2023-05-07T00:06:38;11.52;;;5.95;;
34317;SDS011;20582;52.196;20.952;2023-05-07T00:09:04;11.50;;;6.25;;
34317;SDS011;20582;52.196;20.952;2023-05-07T00:11:30;10.60;;;5.95;;
34317;SDS011;20582;52.196;20.952;2023-05-07T00:13:56;11.35;;;5.88;;
34317;SDS011;20582;52.196;20.952;2023-05-07T00:16:22;9.55;;;5.50;;
34317;SDS011;20582;52.196;20.952;2023-05-07T00:18:48;13.00;;;6.45;;
34317;SDS011;20582;52.196;20.952;2023-05-07T00:21:15;10.32;;;5.53;;
34317;SDS011;20582;52.196;20.952;2023-05-07T00:23:41;11.73;;;5.00;;
34317;SDS011;20582;52.196;20.952;2023-05-07T00:26:07;12.20;;;5.47;;
34317;SDS011;20582;52.196;20.952;2023-05-07T00:28:33;12.63;;;5.45;;
34317;SDS011;20582;52.196;20.952;2023-05-07T00:30:59;12.60;;;6.13;;
34317;SDS011;20582;52.196;20.952;2023-05-07T00:33:25;10.25;;;5.90;;
34317;SDS011;20582;52.196;20.952;2023-05-07T00:35:51;10.85;;;5.57;;
34317;SDS011;20582;52.196;20.952;2023-05-07T00:38:19;9.95;;;5.75;;
34317;SDS011;20582;52.196;20.952;2023-05-07T00:40:45;9.68;;;5.38;;
34317;SDS011;20582;52.196;20.952;2023-05-07T00:43:11;12.73;;;5.65;;
34317;SDS011;20582;52.196;20.952;2023-05-07T00:45:37;10.45;;;5.75;;
34317;SDS011;20582;52.196;20.952;2023-05-07T00:48:04;11.43;;;5.70;;
34317;SDS011;20582;52.196;20.952;2023-05-07T00:50:30;9.52;;;6.03;;
34317;SDS011;20582;52.196;20.952;2023-05-07T00:52:56;10.55;;;5.70;;
34317;SDS011;20582;52.196;20.952;2023-05-07T00:55:23;14.95;;;5.68;;
34317;SDS011;20582;52.196;20.952;2023-05-07T00:57:49;13.25;;;4.95;;
34317;SDS011;20582;52.196;20.952;2023-05-07T01:00:16;13.80;;;5.57;;
34317;SDS011;20582;52.196;20.952;2023-05-07T01:02:43;9.32;;;5.07;;
34317;SDS011;20582;52.196;20.952;2023-05-07T01:05:11;11.65;;;5.80;;
34317;SDS011;20582;52.196;20.952;2023-05-07T01:07:38;12.65;;;5.30;;
34317;SDS011;20582;52.196;20.952;2023-05-07T01:10:05;9.23;;;5.32;;
34317;SDS011;20582;52.196;20.952;2023-05-07T01:12:32;9.38;;;5.28;;
34317;SDS011;20582;52.196;20.952;2023-05-07T01:14:58;13.13;;;6.22;;
34317;SDS011;20582;52.196;20.952;2023-05-07T01:17:24;10.43;;;5.38;;
34317;SDS011;20582;52.196;20.952;2023-05-07T01:19:50;9.85;;;5.28;;
34317;SDS011;20582;52.196;20.952;2023-05-07T01:22:23;10.63;;;5.90;;
34317;SDS011;20582;52.196;20.952;2023-05-07T01:24:51;9.52;;;5.15;;
34317;SDS011;20582;52.196;20.952;2023-05-07T01:27:19;9.02;;;5.05;;
34317;SDS011;20582;52.196;20.952;2023-05-07T01:29:44;13.52;;;5.95;;
34317;SDS011;20582;52.196;20.952;2023-05-07T01:32:10;11.13;;;5.85;;
34317;SDS011;20582;52.196;20.952;2023-05-07T01:34:37;12.32;;;5.78;;
34317;SDS011;20582;52.196;20.952;2023-05-07T01:37:04;10.10;;;5.93;;
34317;SDS011;20582;52.196;20.952;2023-05-07T01:39:30;9.75;;;6.05;;
34317;SDS011;20582;52.196;20.952;2023-05-07T01:41:56;13.93;;;6.03;;
34317;SDS011;20582;52.196;20.952;2023-05-07T01:44:22;11.25;;;6.32;;
34317;SDS011;20582;52.196;20.952;2023-05-07T01:46:49;9.80;;;5.57;;
34317;SDS011;20582;52.196;20.952;2023-05-07T01:49:15;12.40;;;5.53;;
34317;SDS011;20582;52.196;20.952;2023-05-07T01:51:42;9.05;;;5.07;;
34317;SDS011;20582;52.196;20.952;2023-05-07T01:54:08;11.65;;;5.47;;
34317;SDS011;20582;52.196;20.952;2023-05-07T01:56:34;9.98;;;5.80;;
34317;SDS011;20582;52.196;20.952;2023-05-07T01:59:00;10.60;;;5.72;;
34317;SDS011;20582;52.196;20.952;2023-05-07T02:01:27;10.88;;;5.70;;
34317;SDS011;20582;52.196;20.952;2023-05-07T02:03:53;10.02;;;5.28;;
34317;SDS011;20582;52.196;20.952;2023-05-07T02:06:19;10.05;;;5.47;;
34317;SDS011;20582;52.196;20.952;2023-05-07T02:08:46;10.02;;;5.68;;
34317;SDS011;20582;52.196;20.952;2023-05-07T02:11:12;10.68;;;5.68;;
34317;SDS011;20582;52.196;20.952;2023-05-07T02:13:38;10.20;;;5.47;;
34317;SDS011;20582;52.196;20.952;2023-05-07T02:16:04;9.68;;;5.50;;
34317;SDS011;20582;52.196;20.952;2023-05-07T02:18:30;8.55;;;5.28;;
34317;SDS011;20582;52.196;20.952;2023-05-07T02:20:56;10.32;;;5.25;;
34317;SDS011;20582;52.196;20.952;2023-05-07T02:23:22;10.50;;;5.75;;
34317;SDS011;20582;52.196;20.952;2023-05-07T02:25:48;11.38;;;5.40;;
34317;SDS011;20582;52.196;20.952;2023-05-07T02:28:14;9.77;;;5.53;;
34317;SDS011;20582;52.196;20.952;2023-05-07T02:30:40;11.30;;;5.57;;
34317;SDS011;20582;52.196;20.952;2023-05-07T02:33:06;9.75;;;5.47;;
34317;SDS011;20582;52.196;20.952;2023-05-07T02:35:33;10.75;;;5.90;;
34317;SDS011;20582;52.196;20.952;2023-05-07T02:37:59;9.27;;;4.85;;
34317;SDS011;20582;52.196;20.952;2023-05-07T02:40:25;10.68;;;5.55;;
34317;SDS011;20582;52.196;20.952;2023-05-07T02:42:51;10.77;;;6.10;;
34317;SDS011;20582;52.196;20.952;2023-05-07T02:45:17;10.70;;;5.18;;
34317;SDS011;20582;52.196;20.952;2023-05-07T02:47:43;10.82;;;5.38;;
34317;SDS011;20582;52.196;20.952;2023-05-07T02:50:09;11.00;;;4.95;;
34317;SDS011;20582;52.196;20.952;2023-05-07T02:52:35;9.05;;;4.90;;
34317;SDS011;20582;52.196;20.952;2023-05-07T02:55:01;9.77;;;5.30;;
34317;SDS011;20582;52.196;20.952;2023-05-07T02:57:27;9.57;;;5.43;;
34317;SDS011;20582;52.196;20.952;2023-05-07T02:59:53;9.05;;;5.20;;
34317;SDS011;20582;52.196;20.952;2023-05-07T03:02:19;9.15;;;4.95;;
34317;SDS011;20582;52.196;20.952;2023-05-07T03:04:45;8.07;;;4.72;;
34317;SDS011;20582;52.196;20.952;2023-05-07T03:07:11;15.95;;;5.60;;
34317;SDS011;20582;52.196;20.952;2023-05-07T03:09:37;10.40;;;4.70;;
34317;SDS011;20582;52.196;20.952;2023-05-07T03:12:03;10.43;;;4.72;;
34317;SDS011;20582;52.196;20.952;2023-05-07T03:14:29;10.20;;;4.70;;
34317;SDS011;20582;52.196;20.952;2023-05-07T03:16:55;8.57;;;4.95;;
34317;SDS011;20582;52.196;20.952;2023-05-07T03:19:21;9.48;;;4.30;;
34317;SDS011;20582;52.196;20.952;2023-05-07T03:21:47;8.82;;;4.65;;
34317;SDS011;20582;52.196;20.952;2023-05-07T03:24:13;8.23;;;4.22;;
34317;SDS011;20582;52.196;20.952;2023-05-07T03:26:39;10.00;;;5.18;;
34317;SDS011;20582;52.196;20.952;2023-05-07T03:29:05;8.90;;;4.80;;
34317;SDS011;20582;52.196;20.952;2023-05-07T03:31:31;10.95;;;4.72;;
34317;SDS011;20582;52.196;20.952;2023-05-07T03:33:57;9.00;;;4.57;;
34317;SDS011;20582;52.196;20.952;2023-05-07T03:36:23;10.38;;;4.82;;
34317;SDS011;20582;52.196;20.952;2023-05-07T03:38:51;8.75;;;4.60;;
34317;SDS011;20582;52.196;20.952;2023-05-07T03:41:17;8.95;;;4.60;;
34317;SDS011;20582;52.196;20.952;2023-05-07T03:43:43;8.32;;;3.95;;
34317;SDS011;20582;52.196;20.952;2023-05-07T03:46:09;7.93;;;4.35;;
34317;SDS011;20582;52.196;20.952;2023-05-07T03:48:35;8.48;;;4.30;;
34317;SDS011;20582;52.196;20.952;2023-05-07T03:51:01;8.43;;;4.40;;
34317;SDS011;20582;52.196;20.952;2023-05-07T03:53:27;8.88;;;4.60;;
34317;SDS011;20582;52.196;20.952;2023-05-07T03:55:53;7.20;;;4.65;;
34317;SDS011;20582;52.196;20.952;2023-05-07T03:58:19;9.75;;;4.43;;
34317;SDS011;20582;52.196;20.952;2023-05-07T04:00:45;8.38;;;4.97;;
34317;SDS011;20582;52.196;20.952;2023-05-07T04:03:11;8.30;;;4.68;;
34317;SDS011;20582;52.196;20.952;2023-05-07T04:05:37;10.93;;;5.03;;
34317;SDS011;20582;52.196;20.952;2023-05-07T04:08:03;11.32;;;4.63;;
34317;SDS011;20582;52.196;20.952;2023-05-07T04:10:29;8.90;;;4.50;;
34317;SDS011;20582;52.196;20.952;2023-05-07T04:12:55;7.72;;;4.15;;
34317;SDS011;20582;52.196;20.952;2023-05-07T04:15:22;8.65;;;4.07;;
34317;SDS011;20582;52.196;20.952;2023-05-07T04:17:48;9.23;;;4.40;;
34317;SDS011;20582;52.196;20.952;2023-05-07T04:20:14;8.10;;;4.05;;
34317;SDS011;20582;52.196;20.952;2023-05-07T04:22:40;7.88;;;4.10;;
34317;SDS011;20582;52.196;20.952;2023-05-07T04:25:07;7.25;;;3.75;;
34317;SDS011;20582;52.196;20.952;2023-05-07T04:27:34;9.18;;;4.53;;
34317;SDS011;20582;52.196;20.952;2023-05-07T04:30:00;7.60;;;3.85;;
34317;SDS011;20582;52.196;20.952;2023-05-07T04:32:26;8.45;;;4.28;;
34317;SDS011;20582;52.196;20.952;2023-05-07T04:34:54;8.20;;;4.85;;
34317;SDS011;20582;52.196;20.952;2023-05-07T04:37:20;7.57;;;4.07;;
34317;SDS011;20582;52.196;20.952;2023-05-07T04:39:46;8.07;;;4.40;;
34317;SDS011;20582;52.196;20.952;2023-05-07T04:42:15;9.15;;;4.53;;
34317;SDS011;20582;52.196;20.952;2023-05-07T04:44:43;7.82;;;4.25;;
34317;SDS011;20582;52.196;20.952;2023-05-07T04:47:10;9.27;;;4.25;;
34317;SDS011;20582;52.196;20.952;2023-05-07T04:49:36;9.60;;;4.43;;
34317;SDS011;20582;52.196;20.952;2023-05-07T04:52:02;8.15;;;4.20;;
34317;SDS011;20582;52.196;20.952;2023-05-07T04:54:28;8.52;;;4.18;;
34317;SDS011;20582;52.196;20.952;2023-05-07T04:56:54;8.57;;;4.00;;
34317;SDS011;20582;52.196;20.952;2023-05-07T04:59:20;8.48;;;4.28;;
34317;SDS011;20582;52.196;20.952;2023-05-07T05:01:46;12.10;;;4.15;;
34317;SDS011;20582;52.196;20.952;2023-05-07T05:04:12;8.70;;;3.80;;
34317;SDS011;20582;52.196;20.952;2023-05-07T05:06:38;8.63;;;4.32;;
34317;SDS011;20582;52.196;20.952;2023-05-07T05:09:05;9.10;;;3.83;;
34317;SDS011;20582;52.196;20.952;2023-05-07T05:11:31;8.55;;;3.67;;
34317;SDS011;20582;52.196;20.952;2023-05-07T05:13:58;8.25;;;3.70;;
34317;SDS011;20582;52.196;20.952;2023-05-07T05:16:25;7.35;;;3.90;;
34317;SDS011;20582;52.196;20.952;2023-05-07T05:18:51;7.97;;;3.80;;
34317;SDS011;20582;52.196;20.952;2023-05-07T05:21:19;6.53;;;3.70;;
34317;SDS011;20582;52.196;20.952;2023-05-07T05:23:45;8.07;;;3.50;;
34317;SDS011;20582;52.196;20.952;2023-05-07T05:26:11;7.43;;;3.53;;
34317;SDS011;20582;52.196;20.952;2023-05-07T05:28:36;7.63;;;3.17;;
34317;SDS011;20582;52.196;20.952;2023-05-07T05:31:02;6.28;;;3.58;;
34317;SDS011;20582;52.196;20.952;2023-05-07T05:33:28;8.68;;;3.30;;
34317;SDS011;20582;52.196;20.952;2023-05-07T05:35:54;7.22;;;4.10;;
34317;SDS011;20582;52.196;20.952;2023-05-07T05:38:20;6.60;;;3.30;;
34317;SDS011;20582;52.196;20.952;2023-05-07T05:40:47;6.13;;;3.20;;
34317;SDS011;20582;52.196;20.952;2023-05-07T05:43:13;6.53;;;3.08;;
34317;SDS011;20582;52.196;20.952;2023-05-07T05:45:39;5.32;;;3.00;;
34317;SDS011;20582;52.196;20.952;2023-05-07T05:48:05;6.47;;;3.20;;
34317;SDS011;20582;52.196;20.952;2023-05-07T05:50:33;6.88;;;3.15;;
34317;SDS011;20582;52.196;20.952;2023-05-07T05:53:00;4.68;;;2.70;;
34317;SDS011;20582;52.196;20.952;2023-05-07T05:55:26;4.93;;;2.90;;
34317;SDS011;20582;52.196;20.952;2023-05-07T05:57:52;6.65;;;3.50;;
34317;SDS011;20582;52.196;20.952;2023-05-07T06:00:18;5.35;;;2.72;;
34317;SDS011;20582;52.196;20.952;2023-05-07T06:02:47;6.90;;;3.65;;
34317;SDS011;20582;52.196;20.952;2023-05-07T06:05:13;6.07;;;3.20;;
34317;SDS011;20582;52.196;20.952;2023-05-07T06:07:39;5.43;;;3.08;;
34317;SDS011;20582;52.196;20.952;2023-05-07T06:10:05;7.03;;;2.80;;
34317;SDS011;20582;52.196;20.952;2023-05-07T06:12:32;4.45;;;2.53;;
34317;SDS011;20582;52.196;20.952;2023-05-07T06:14:58;4.75;;;2.65;;
34317;SDS011;20582;52.196;20.952;2023-05-07T06:17:24;4.82;;;2.88;;
34317;SDS011;20582;52.196;20.952;2023-05-07T06:19:49;5.07;;;2.33;;
34317;SDS011;20582;52.196;20.952;2023-05-07T06:22:15;5.50;;;2.67;;
34317;SDS011;20582;52.196;20.952;2023-05-07T06:24:41;8.07;;;2.75;;
34317;SDS011;20582;52.196;20.952;2023-05-07T06:27:07;4.30;;;2.35;;
34317;SDS011;20582;52.196;20.952;2023-05-07T06:29:33;4.70;;;2.65;;
34317;SDS011;20582;52.196;20.952;2023-05-07T06:32:06;7.70;;;2.83;;
34317;SDS011;20582;52.196;20.952;2023-05-07T06:34:32;4.95;;;2.70;;
34317;SDS011;20582;52.196;20.952;2023-05-07T06:36:58;6.72;;;2.58;;
34317;SDS011;20582;52.196;20.952;2023-05-07T06:39:24;5.28;;;2.90;;
34317;SDS011;20582;52.196;20.952;2023-05-07T06:41:50;3.78;;;2.40;;
34317;SDS011;20582;52.196;20.952;2023-05-07T06:44:16;4.97;;;2.70;;
34317;SDS011;20582;52.196;20.952;2023-05-07T06:46:42;4.63;;;2.40;;
34317;SDS011;20582;52.196;20.952;2023-05-07T06:49:08;5.65;;;2.88;;
34317;SDS011;20582;52.196;20.952;2023-05-07T06:51:34;6.20;;;2.80;;
34317;SDS011;20582;52.196;20.952;2023-05-07T06:54:00;4.45;;;2.60;;
34317;SDS011;20582;52.196;20.952;2023-05-07T06:56:26;7.30;;;2.80;;
34317;SDS011;20582;52.196;20.952;2023-05-07T06:58:52;5.82;;;2.65;;
34317;SDS011;20582;52.196;20.952;2023-05-07T07:01:18;5.70;;;3.03;;
34317;SDS011;20582;52.196;20.952;2023-05-07T07:03:44;7.07;;;2.97;;
34317;SDS011;20582;52.196;20.952;2023-05-07T07:06:10;4.88;;;2.67;;
34317;SDS011;20582;52.196;20.952;2023-05-07T07:08:36;7.10;;;3.28;;
34317;SDS011;20582;52.196;20.952;2023-05-07T07:11:03;5.68;;;3.10;;
34317;SDS011;20582;52.196;20.952;2023-05-07T07:13:29;5.90;;;3.00;;
34317;SDS011;20582;52.196;20.952;2023-05-07T07:15:55;4.32;;;2.70;;
34317;SDS011;20582;52.196;20.952;2023-05-07T07:18:21;7.10;;;2.88;;
34317;SDS011;20582;52.196;20.952;2023-05-07T07:20:47;5.60;;;2.70;;
34317;SDS011;20582;52.196;20.952;2023-05-07T07:23:13;4.97;;;2.80;;
34317;SDS011;20582;52.196;20.952;2023-05-07T07:25:39;5.35;;;2.65;;
34317;SDS011;20582;52.196;20.952;2023-05-07T07:28:05;4.10;;;2.40;;
34317;SDS011;20582;52.196;20.952;2023-05-07T07:30:32;4.80;;;2.70;;
34317;SDS011;20582;52.196;20.952;2023-05-07T07:32:58;5.35;;;2.65;;
34317;SDS011;20582;52.196;20.952;2023-05-07T07:35:31;6.07;;;2.90;;
34317;SDS011;20582;52.196;20.952;2023-05-07T07:37:57;4.78;;;2.58;;
34317;SDS011;20582;52.196;20.952;2023-05-07T07:40:23;11.07;;;2.58;;
34317;SDS011;20582;52.196;20.952;2023-05-07T07:42:50;6.53;;;2.50;;
34317;SDS011;20582;52.196;20.952;2023-05-07T07:45:16;5.18;;;2.42;;
34317;SDS011;20582;52.196;20.952;2023-05-07T07:47:42;6.72;;;2.78;;
34317;SDS011;20582;52.196;20.952;2023-05-07T07:50:08;5.13;;;2.55;;
34317;SDS011;20582;52.196;20.952;2023-05-07T07:52:34;7.82;;;2.83;;
34317;SDS011;20582;52.196;20.952;2023-05-07T07:55:00;5.43;;;2.40;;
34317;SDS011;20582;52.196;20.952;2023-05-07T07:57:27;4.18;;;2.50;;
34317;SDS011;20582;52.196;20.952;2023-05-07T07:59:53;5.80;;;2.50;;
34317;SDS011;20582;52.196;20.952;2023-05-07T08:02:19;5.43;;;2.60;;
34317;SDS011;20582;52.196;20.952;2023-05-07T08:04:45;3.90;;;2.30;;
34317;SDS011;20582;52.196;20.952;2023-05-07T08:07:11;5.93;;;2.92;;
34317;SDS011;20582;52.196;20.952;2023-05-07T08:09:37;4.75;;;2.70;;
34317;SDS011;20582;52.196;20.952;2023-05-07T08:12:04;4.97;;;2.95;;
34317;SDS011;20582;52.196;20.952;2023-05-07T08:14:30;6.47;;;2.88;;
34317;SDS011;20582;52.196;20.952;2023-05-07T08:16:56;5.00;;;2.60;;
34317;SDS011;20582;52.196;20.952;2023-05-07T08:19:22;4.70;;;2.63;;
34317;SDS011;20582;52.196;20.952;2023-05-07T08:21:48;5.63;;;2.78;;
34317;SDS011;20582;52.196;20.952;2023-05-07T08:24:14;4.80;;;2.50;;
34317;SDS011;20582;52.196;20.952;2023-05-07T08:26:40;6.32;;;2.70;;
34317;SDS011;20582;52.196;20.952;2023-05-07T08:29:07;5.28;;;2.30;;
34317;SDS011;20582;52.196;20.952;2023-05-07T08:31:33;6.30;;;2.53;;
34317;SDS011;20582;52.196;20.952;2023-05-07T08:33:59;5.18;;;2.50;;
34317;SDS011;20582;52.196;20.952;2023-05-07T08:36:25;4.20;;;2.17;;
34317;SDS011;20582;52.196;20.952;2023-05-07T08:38:51;4.97;;;2.67;;
34317;SDS011;20582;52.196;20.952;2023-05-07T08:41:17;5.07;;;2.40;;
34317;SDS011;20582;52.196;20.952;2023-05-07T08:43:45;5.00;;;2.40;;
34317;SDS011;20582;52.196;20.952;2023-05-07T08:46:12;3.90;;;2.28;;
34317;SDS011;20582;52.196;20.952;2023-05-07T08:48:41;7.53;;;3.05;;
34317;SDS011;20582;52.196;20.952;2023-05-07T08:51:08;4.68;;;2.50;;
34317;SDS011;20582;52.196;20.952;2023-05-07T08:53:34;6.38;;;2.30;;
34317;SDS011;20582;52.196;20.952;2023-05-07T08:56:01;5.25;;;2.50;;
34317;SDS011;20582;52.196;20.952;2023-05-07T08:58:28;3.95;;;1.88;;
34317;SDS011;20582;52.196;20.952;2023-05-07T09:00:53;4.30;;;2.30;;
34317;SDS011;20582;52.196;20.952;2023-05-07T09:03:20;6.78;;;2.42;;
34317;SDS011;20582;52.196;20.952;2023-05-07T09:05:45;6.28;;;2.35;;
34317;SDS011;20582;52.196;20.952;2023-05-07T09:08:14;5.05;;;2.40;;
34317;SDS011;20582;52.196;20.952;2023-05-07T09:10:40;4.20;;;2.42;;
34317;SDS011;20582;52.196;20.952;2023-05-07T09:13:07;6.78;;;2.60;;
34317;SDS011;20582;52.196;20.952;2023-05-07T09:15:33;6.95;;;2.97;;
34317;SDS011;20582;52.196;20.952;2023-05-07T09:17:59;5.40;;;2.33;;
34317;SDS011;20582;52.196;20.952;2023-05-07T09:20:29;6.28;;;2.63;;
34317;SDS011;20582;52.196;20.952;2023-05-07T09:22:56;7.43;;;2.88;;
34317;SDS011;20582;52.196;20.952;2023-05-07T09:25:29;4.03;;;2.38;;
34317;SDS011;20582;52.196;20.952;2023-05-07T09:27:55;4.15;;;2.15;;
34317;SDS011;20582;52.196;20.952;2023-05-07T09:30:21;5.30;;;2.33;;
34317;SDS011;20582;52.196;20.952;2023-05-07T09:32:48;4.50;;;2.45;;
34317;SDS011;20582;52.196;20.952;2023-05-07T09:35:14;4.78;;;2.10;;
34317;SDS011;20582;52.196;20.952;2023-05-07T09:37:41;5.57;;;2.45;;
34317;SDS011;20582;52.196;20.952;2023-05-07T09:40:08;3.20;;;1.98;;
34317;SDS011;20582;52.196;20.952;2023-05-07T09:42:34;4.65;;;2.20;;
34317;SDS011;20582;52.196;20.952;2023-05-07T09:45:00;5.07;;;2.17;;
34317;SDS011;20582;52.196;20.952;2023-05-07T09:47:26;3.05;;;1.95;;
34317;SDS011;20582;52.196;20.952;2023-05-07T09:49:58;6.00;;;2.20;;
34317;SDS011;20582;52.196;20.952;2023-05-07T09:52:25;4.28;;;2.20;;
34317;SDS011;20582;52.196;20.952;2023-05-07T09:54:58;4.88;;;2.30;;
34317;SDS011;20582;52.196;20.952;2023-05-07T09:57:25;3.65;;;2.10;;
34317;SDS011;20582;52.196;20.952;2023-05-07T09:59:51;5.63;;;2.35;;
34317;SDS011;20582;52.196;20.952;2023-05-07T10:02:17;4.43;;;2.20;;
34317;SDS011;20582;52.196;20.952;2023-05-07T10:04:45;6.05;;;2.55;;
34317;SDS011;20582;52.196;20.952;2023-05-07T10:07:13;4.57;;;2.58;;
34317;SDS011;20582;52.196;20.952;2023-05-07T10:09:39;6.25;;;2.45;;
34317;SDS011;20582;52.196;20.952;2023-05-07T10:12:07;6.13;;;2.35;;
34317;SDS011;20582;52.196;20.952;2023-05-07T10:14:33;5.13;;;2.13;;
34317;SDS011;20582;52.196;20.952;2023-05-07T10:16:59;5.47;;;2.20;;
34317;SDS011;20582;52.196;20.952;2023-05-07T10:19:26;4.45;;;2.45;;
34317;SDS011;20582;52.196;20.952;2023-05-07T10:21:58;4.43;;;2.17;;
34317;SDS011;20582;52.196;20.952;2023-05-07T10:24:26;4.35;;;2.38;;
34317;SDS011;20582;52.196;20.952;2023-05-07T10:26:52;5.80;;;2.30;;
34317;SDS011;20582;52.196;20.952;2023-05-07T10:29:30;4.43;;;2.20;;
34317;SDS011;20582;52.196;20.952;2023-05-07T10:34:45;4.85;;;2.30;;
34317;SDS011;20582;52.196;20.952;2023-05-07T10:37:12;4.68;;;2.17;;
34317;SDS011;20582;52.196;20.952;2023-05-07T10:39:38;6.03;;;2.80;;
34317;SDS011;20582;52.196;20.952;2023-05-07T10:42:11;6.35;;;2.50;;
34317;SDS011;20582;52.196;20.952;2023-05-07T10:44:37;4.75;;;2.13;;
34317;SDS011;20582;52.196;20.952;2023-05-07T10:47:07;3.08;;;2.10;;
34317;SDS011;20582;52.196;20.952;2023-05-07T10:52:13;5.07;;;2.22;;
34317;SDS011;20582;52.196;20.952;2023-05-07T10:54:40;4.80;;;2.20;;
34317;SDS011;20582;52.196;20.952;2023-05-07T10:59:51;5.72;;;2.20;;
34317;SDS011;20582;52.196;20.952;2023-05-07T11:02:18;7.68;;;2.70;;
34317;SDS011;20582;52.196;20.952;2023-05-07T11:04:44;5.47;;;2.17;;
34317;SDS011;20582;52.196;20.952;2023-05-07T11:07:21;4.75;;;2.20;;
34317;SDS011;20582;52.196;20.952;2023-05-07T11:15:06;6.80;;;2.20;;
34317;SDS011;20582;52.196;20.952;2023-05-07T11:17:33;3.08;;;1.88;;
34317;SDS011;20582;52.196;20.952;2023-05-07T11:20:00;5.47;;;1.83;;
34317;SDS011;20582;52.196;20.952;2023-05-07T11:25:00;5.07;;;2.20;;
34317;SDS011;20582;52.196;20.952;2023-05-07T11:27:27;4.78;;;2.20;;
34317;SDS011;20582;52.196;20.952;2023-05-07T11:29:53;4.28;;;1.95;;
34317;SDS011;20582;52.196;20.952;2023-05-07T11:32:22;5.03;;;2.08;;
34317;SDS011;20582;52.196;20.952;2023-05-07T11:34:51;4.70;;;2.40;;
34317;SDS011;20582;52.196;20.952;2023-05-07T11:37:17;6.35;;;2.20;;
34317;SDS011;20582;52.196;20.952;2023-05-07T11:39:43;5.38;;;1.90;;
34317;SDS011;20582;52.196;20.952;2023-05-07T11:42:25;5.28;;;2.30;;
34317;SDS011;20582;52.196;20.952;2023-05-07T11:44:51;4.88;;;1.77;;
34317;SDS011;20582;52.196;20.952;2023-05-07T11:47:18;4.88;;;1.80;;
34317;SDS011;20582;52.196;20.952;2023-05-07T11:49:47;5.20;;;2.20;;
34317;SDS011;20582;52.196;20.952;2023-05-07T11:52:14;5.10;;;2.30;;
34317;SDS011;20582;52.196;20.952;2023-05-07T11:54:40;3.88;;;2.05;;
34317;SDS011;20582;52.196;20.952;2023-05-07T11:57:06;4.97;;;1.95;;
34317;SDS011;20582;52.196;20.952;2023-05-07T11:59:38;5.35;;;2.20;;
34317;SDS011;20582;52.196;20.952;2023-05-07T12:02:09;4.68;;;1.90;;
34317;SDS011;20582;52.196;20.952;2023-05-07T12:04:35;3.58;;;1.85;;
34317;SDS011;20582;52.196;20.952;2023-05-07T12:07:01;6.85;;;1.98;;
34317;SDS011;20582;52.196;20.952;2023-05-07T12:09:27;3.53;;;1.98;;
34317;SDS011;20582;52.196;20.952;2023-05-07T12:11:53;3.88;;;2.13;;
34317;SDS011;20582;52.196;20.952;2023-05-07T12:14:21;5.43;;;2.40;;
34317;SDS011;20582;52.196;20.952;2023-05-07T12:16:47;3.03;;;1.90;;
34317;SDS011;20582;52.196;20.952;2023-05-07T12:19:13;3.70;;;2.20;;
34317;SDS011;20582;52.196;20.952;2023-05-07T12:21:39;6.45;;;2.00;;
34317;SDS011;20582;52.196;20.952;2023-05-07T12:24:05;4.80;;;2.40;;
34317;SDS011;20582;52.196;20.952;2023-05-07T12:26:31;6.43;;;2.40;;
34317;SDS011;20582;52.196;20.952;2023-05-07T12:28:57;5.97;;;2.40;;
34317;SDS011;20582;52.196;20.952;2023-05-07T12:31:25;4.72;;;1.90;;
34317;SDS011;20582;52.196;20.952;2023-05-07T12:33:51;5.53;;;2.22;;
34317;SDS011;20582;52.196;20.952;2023-05-07T12:36:18;3.15;;;1.77;;
34317;SDS011;20582;52.196;20.952;2023-05-07T12:38:44;3.67;;;1.83;;
34317;SDS011;20582;52.196;20.952;2023-05-07T12:41:10;5.45;;;2.08;;
34317;SDS011;20582;52.196;20.952;2023-05-07T12:43:37;3.72;;;1.73;;
34317;SDS011;20582;52.196;20.952;2023-05-07T12:46:04;4.82;;;2.13;;
34317;SDS011;20582;52.196;20.952;2023-05-07T12:48:30;3.80;;;1.90;;
34317;SDS011;20582;52.196;20.952;2023-05-07T12:50:57;3.28;;;1.85;;
34317;SDS011;20582;52.196;20.952;2023-05-07T12:53:24;3.10;;;1.95;;
34317;SDS011;20582;52.196;20.952;2023-05-07T12:55:51;3.65;;;2.00;;
34317;SDS011;20582;52.196;20.952;2023-05-07T12:58:19;6.45;;;2.10;;
34317;SDS011;20582;52.196;20.952;2023-05-07T13:00:47;3.83;;;1.73;;
34317;SDS011;20582;52.196;20.952;2023-05-07T13:03:20;2.70;;;1.80;;
34317;SDS011;20582;52.196;20.952;2023-05-07T13:05:46;3.47;;;1.60;;
34317;SDS011;20582;52.196;20.952;2023-05-07T13:08:13;3.88;;;1.83;;
34317;SDS011;20582;52.196;20.952;2023-05-07T13:10:48;3.42;;;1.90;;
34317;SDS011;20582;52.196;20.952;2023-05-07T13:13:14;3.95;;;1.70;;
34317;SDS011;20582;52.196;20.952;2023-05-07T13:15:40;4.25;;;1.70;;
34317;SDS011;20582;52.196;20.952;2023-05-07T13:18:06;5.03;;;2.10;;
34317;SDS011;20582;52.196;20.952;2023-05-07T13:20:32;3.00;;;1.92;;
34317;SDS011;20582;52.196;20.952;2023-05-07T13:22:58;4.30;;;1.95;;
34317;SDS011;20582;52.196;20.952;2023-05-07T13:25:26;3.53;;;1.70;;
34317;SDS011;20582;52.196;20.952;2023-05-07T13:27:52;3.35;;;1.90;;
34317;SDS011;20582;52.196;20.952;2023-05-07T13:30:18;3.97;;;2.10;;
34317;SDS011;20582;52.196;20.952;2023-05-07T13:32:44;5.47;;;2.10;;
34317;SDS011;20582;52.196;20.952;2023-05-07T13:35:12;4.93;;;2.10;;
34317;SDS011;20582;52.196;20.952;2023-05-07T13:37:38;5.05;;;2.13;;
34317;SDS011;20582;52.196;20.952;2023-05-07T13:40:05;7.28;;;2.13;;
34317;SDS011;20582;52.196;20.952;2023-05-07T13:42:31;3.30;;;2.00;;
34317;SDS011;20582;52.196;20.952;2023-05-07T13:44:57;3.33;;;1.80;;
34317;SDS011;20582;52.196;20.952;2023-05-07T13:47:23;3.78;;;1.83;;
34317;SDS011;20582;52.196;20.952;2023-05-07T13:49:49;4.07;;;2.00;;
34317;SDS011;20582;52.196;20.952;2023-05-07T13:52:15;7.10;;;1.80;;
34317;SDS011;20582;52.196;20.952;2023-05-07T13:54:42;5.35;;;1.90;;
34317;SDS011;20582;52.196;20.952;2023-05-07T13:57:08;2.55;;;1.70;;
34317;SDS011;20582;52.196;20.952;2023-05-07T13:59:35;3.47;;;1.80;;
34317;SDS011;20582;52.196;20.952;2023-05-07T14:02:01;2.42;;;1.60;;
34317;SDS011;20582;52.196;20.952;2023-05-07T14:04:27;4.28;;;1.95;;
34317;SDS011;20582;52.196;20.952;2023-05-07T14:06:53;3.70;;;1.90;;
34317;SDS011;20582;52.196;20.952;2023-05-07T14:09:19;2.47;;;1.70;;
34317;SDS011;20582;52.196;20.952;2023-05-07T14:11:45;5.07;;;1.95;;
34317;SDS011;20582;52.196;20.952;2023-05-07T14:14:12;3.20;;;1.92;;
34317;SDS011;20582;52.196;20.952;2023-05-07T14:16:38;4.85;;;2.00;;
34317;SDS011;20582;52.196;20.952;2023-05-07T14:19:04;4.78;;;2.00;;
34317;SDS011;20582;52.196;20.952;2023-05-07T14:21:30;5.35;;;2.03;;
34317;SDS011;20582;52.196;20.952;2023-05-07T14:23:56;3.92;;;1.90;;
34317;SDS011;20582;52.196;20.952;2023-05-07T14:26:22;3.35;;;2.05;;
34317;SDS011;20582;52.196;20.952;2023-05-07T14:28:48;3.92;;;1.92;;
34317;SDS011;20582;52.196;20.952;2023-05-07T14:31:14;4.47;;;2.10;;
34317;SDS011;20582;52.196;20.952;2023-05-07T14:33:40;4.25;;;2.10;;
34317;SDS011;20582;52.196;20.952;2023-05-07T14:36:06;5.85;;;2.20;;
34317;SDS011;20582;52.196;20.952;2023-05-07T14:38:32;4.18;;;2.00;;
34317;SDS011;20582;52.196;20.952;2023-05-07T14:40:58;4.05;;;2.10;;
34317;SDS011;20582;52.196;20.952;2023-05-07T14:43:24;4.10;;;1.65;;
34317;SDS011;20582;52.196;20.952;2023-05-07T14:45:50;5.40;;;2.17;;